Weather History for PAGS - February, 2014

Change the Weather History Date:

Tuesday, February 18, 2014

  Actual Average Record
Temperature  
Mean Temperature 27 °F -  
Max Temperature 35 °F 36 °F 44 °F (1963)
Min Temperature 17 °F 24 °F -1 °F (1952)
Degree Days  
Heating Degree Days 38    
Moisture  
Dew Point 24 °F    
Average Humidity 84    
Maximum Humidity 100    
Minimum Humidity 60    
Precipitation  
Precipitation 0.00 in - - ()
Sea Level Pressure  
Sea Level Pressure 29.31 in    
Wind  
Wind Speed 4 mph (NNW)    
Max Wind Speed 12 mph    
Max Gust Speed -    
Visibility 9 miles    
Events      
Averages and records for this station are not official NWS values.
T = Trace of Precipitation, MM = Missing Value Source: NWS Daily Summary

Daily Weather History Graph

Daily Weather History Graph

Search for Another Location

Airport or City:

Trip Planner

Search our weather history database for the weather conditions in past years. The results will help you decide how hot, cold, wet, or windy it might be!

Date:

Astronomy

Feb. 18, 2014 Rise Set
Actual Time 7:27 AM AKST 5:07 PM AKST
Civil Twilight 6:46 AM AKST 5:48 PM AKST
Nautical Twilight 5:59 AM AKST 6:34 PM AKST
Astronomical Twilight 5:13 AM AKST 7:20 PM AKST
Moon 10:12 PM AKST (2/18) 8:07 AM AKST (2/18)
Length of Visible Light 11h 02m
Length of Day
9h 40m
Waning Gibbous, 86% of the Moon is Illuminated
Feb 18
Waning Gibbous
Feb 22
Last Quarter
Feb 28
New
Mar 8
First Quarter
Mar 16
Full

Hourly Weather History & Observations

Time (AKST) Temp. Windchill Dew Point Humidity Pressure Visibility Wind Dir Wind Speed Gust Speed Precip Events Conditions
12:16 AM 28.4 °F - 26.6 °F 93% 29.33 in 3.0 mi Calm Calm - N/A   Overcast
12:36 AM 28.4 °F - 26.6 °F 93% 29.33 in 3.0 mi Calm Calm - N/A   Overcast
12:56 AM 28.4 °F - 28.4 °F 100% 29.33 in 10.0 mi Calm Calm - N/A   Mostly Cloudy
1:16 AM 28.4 °F 24.6 °F 26.6 °F 93% 29.33 in 10.0 mi NNE 3.5 mph - N/A   Overcast
1:36 AM 28.4 °F 24.6 °F 28.4 °F 100% 29.33 in 2.0 mi North 3.5 mph - N/A   Overcast
1:56 AM 30.2 °F 22.6 °F 28.4 °F 93% 29.33 in 3.0 mi North 8.1 mph - N/A   Overcast
2:16 AM 30.2 °F 23.4 °F 28.4 °F 93% 29.33 in 3.0 mi NW 6.9 mph - N/A   Overcast
2:36 AM 30.2 °F 23.4 °F 28.4 °F 93% 29.33 in 9.0 mi NNW 6.9 mph - N/A   Overcast
2:56 AM 30.2 °F 23.4 °F 28.4 °F 93% 29.33 in 10.0 mi NNW 6.9 mph - N/A   Overcast
3:16 AM 28.4 °F 22.2 °F 26.6 °F 93% 29.33 in 10.0 mi North 5.8 mph - N/A   Overcast
3:36 AM 28.4 °F 20.4 °F 26.6 °F 93% 29.33 in 10.0 mi North 8.1 mph - N/A   Mostly Cloudy
3:56 AM 28.4 °F 23.3 °F 26.6 °F 93% 29.33 in 10.0 mi NNW 4.6 mph - N/A   Mostly Cloudy
4:16 AM 28.4 °F 23.3 °F 26.6 °F 93% 29.33 in 10.0 mi NNW 4.6 mph - N/A   Mostly Cloudy
4:36 AM 28.4 °F 23.3 °F 26.6 °F 93% 29.33 in 10.0 mi NW 4.6 mph - N/A   Mostly Cloudy
4:56 AM 28.4 °F 22.2 °F 26.6 °F 93% 29.33 in 10.0 mi NNW 5.8 mph - N/A   Mostly Cloudy
5:16 AM 28.4 °F 24.6 °F 26.6 °F 93% 29.33 in 10.0 mi NNW 3.5 mph - N/A   Mostly Cloudy
5:36 AM 28.4 °F - 26.6 °F 93% 29.33 in 10.0 mi Calm Calm - N/A   Mostly Cloudy
5:56 AM 26.6 °F - 26.6 °F 100% 29.33 in 10.0 mi Calm Calm - N/A   Overcast
6:16 AM 28.4 °F 24.6 °F 26.6 °F 93% 29.33 in 10.0 mi NNW 3.5 mph - N/A   Overcast
6:36 AM 28.4 °F 22.2 °F 26.6 °F 93% 29.33 in 10.0 mi NNW 5.8 mph - N/A   Mostly Cloudy
6:56 AM 26.6 °F 20.0 °F 24.8 °F 93% 29.33 in 10.0 mi NNW 5.8 mph - N/A   Clear
7:16 AM 26.6 °F 21.2 °F 24.8 °F 93% 29.33 in 10.0 mi NNW 4.6 mph - N/A   Clear
7:36 AM 26.6 °F - 23.0 °F 86% 29.33 in 10.0 mi Calm Calm - N/A   Clear
7:56 AM 26.6 °F - 24.8 °F 93% 29.32 in 10.0 mi Calm Calm - N/A   Mostly Cloudy
8:16 AM 26.6 °F 22.6 °F 26.6 °F 100% 29.32 in 10.0 mi NNW 3.5 mph - N/A   Overcast
8:36 AM 26.6 °F 21.2 °F 24.8 °F 93% 29.31 in 10.0 mi NNW 4.6 mph - N/A   Overcast
8:56 AM 26.6 °F 20.0 °F 24.8 °F 93% 29.31 in 10.0 mi NNW 5.8 mph - N/A   Mostly Cloudy
9:16 AM 26.6 °F 20.0 °F 24.8 °F 93% 29.31 in 10.0 mi NNW 5.8 mph - N/A   Scattered Clouds
9:36 AM 26.6 °F 21.2 °F 24.8 °F 93% 29.30 in 10.0 mi NNW 4.6 mph - N/A   Mostly Cloudy
9:56 AM 28.4 °F 23.3 °F 24.8 °F 86% 29.30 in 10.0 mi NNW 4.6 mph - N/A   Mostly Cloudy
10:16 AM 28.4 °F 24.6 °F 24.8 °F 86% 29.30 in 10.0 mi NNW 3.5 mph - N/A   Mostly Cloudy
10:36 AM 28.4 °F 21.2 °F 24.8 °F 86% 29.30 in 10.0 mi NNW 6.9 mph - N/A   Clear
10:56 AM 30.2 °F 22.6 °F 24.8 °F 80% 29.29 in 10.0 mi NNW 8.1 mph - N/A   Clear
11:16 AM 32.0 °F 24.2 °F 26.6 °F 80% 29.29 in 10.0 mi NNW 9.2 mph - N/A   Clear
11:36 AM 33.8 °F 26.4 °F 26.6 °F 75% 29.28 in 10.0 mi NW 9.2 mph - N/A   Clear
11:56 AM 33.8 °F 25.8 °F 24.8 °F 70% 29.28 in 10.0 mi NW 10.4 mph - N/A   Clear
12:16 PM 33.8 °F 26.4 °F 26.6 °F 75% 29.27 in 10.0 mi NW 9.2 mph - N/A   Clear
12:36 PM 33.8 °F 25.3 °F 26.6 °F 75% 29.27 in 10.0 mi NW 11.5 mph - N/A   Clear
12:56 PM 33.8 °F 25.3 °F 24.8 °F 70% 29.26 in 10.0 mi NNW 11.5 mph - N/A   Clear
1:16 PM 33.8 °F 25.3 °F 24.8 °F 70% 29.25 in 10.0 mi NNW 11.5 mph - N/A   Clear
1:36 PM 33.8 °F 26.4 °F 24.8 °F 70% 29.25 in 10.0 mi NW 9.2 mph - N/A   Clear
1:56 PM 33.8 °F 25.8 °F 23.0 °F 65% 29.25 in 10.0 mi NNW 10.4 mph - N/A   Clear
2:16 PM 33.8 °F 25.8 °F 23.0 °F 65% 29.24 in 10.0 mi NNW 10.4 mph - N/A   Clear
2:36 PM 35.6 °F 29.2 °F 24.8 °F 65% 29.25 in 10.0 mi NW 8.1 mph - N/A   Clear
2:56 PM 35.6 °F 29.9 °F 24.8 °F 65% 29.25 in 10.0 mi NW 6.9 mph - N/A   Clear
3:16 PM 33.8 °F 26.4 °F 23.0 °F 65% 29.25 in 10.0 mi NW 9.2 mph - N/A   Clear
3:36 PM 33.8 °F 27.0 °F 21.2 °F 60% 29.25 in 10.0 mi NW 8.1 mph - N/A   Clear
3:56 PM 33.8 °F 27.7 °F 23.0 °F 65% 29.26 in 10.0 mi NW 6.9 mph - N/A   Clear
4:16 PM 33.8 °F 26.4 °F 24.8 °F 70% 29.26 in 10.0 mi NW 9.2 mph - N/A   Clear
4:36 PM 33.8 °F 27.7 °F 24.8 °F 70% 29.26 in 10.0 mi NW 6.9 mph - N/A   Clear
4:56 PM 33.8 °F 28.6 °F 24.8 °F 70% 29.27 in 10.0 mi NW 5.8 mph - N/A   Clear
5:16 PM 30.2 °F 24.3 °F 24.8 °F 80% 29.28 in 10.0 mi NW 5.8 mph - N/A   Clear
5:36 PM 30.2 °F 23.4 °F 23.0 °F 75% 29.28 in 10.0 mi NW 6.9 mph - N/A   Clear
5:56 PM 30.2 °F 25.4 °F 24.8 °F 80% 29.29 in 10.0 mi NW 4.6 mph - N/A   Clear
6:16 PM 28.4 °F 22.2 °F 23.0 °F 80% 29.30 in 10.0 mi NNW 5.8 mph - N/A   Clear
6:36 PM 28.4 °F 22.2 °F 21.2 °F 74% 29.30 in 10.0 mi NNW 5.8 mph - N/A   Clear
6:56 PM 28.4 °F 22.2 °F 21.2 °F 74% 29.31 in 10.0 mi NNW 5.8 mph - N/A   Clear
7:16 PM 26.6 °F - 23.0 °F 86% 29.32 in 10.0 mi Calm Calm - N/A   Clear
7:36 PM 24.8 °F - 21.2 °F 86% 29.32 in 10.0 mi Calm Calm - N/A   Clear
7:56 PM 23.0 °F 15.8 °F 17.6 °F 80% 29.33 in 10.0 mi NNW 5.8 mph - N/A   Clear
8:16 PM 26.6 °F 19.1 °F 23.0 °F 86% 29.34 in 10.0 mi NNW 6.9 mph - N/A   Clear
8:36 PM 24.8 °F 20.5 °F 19.4 °F 80% 29.34 in 10.0 mi NNW 3.5 mph - N/A   Clear
8:56 PM 21.2 °F 14.9 °F 15.8 °F 80% 29.34 in 7.0 mi NNW 4.6 mph - N/A   Clear
9:16 PM 24.8 °F 17.9 °F 21.2 °F 86% 29.35 in 10.0 mi NNW 5.8 mph - N/A   Clear
9:36 PM 23.0 °F 17.0 °F 21.2 °F 93% 29.35 in 10.0 mi NNW 4.6 mph - N/A   Clear
9:56 PM 21.2 °F 16.4 °F 19.4 °F 93% 29.36 in 10.0 mi NNW 3.5 mph - N/A   Clear
10:16 PM 21.2 °F 14.9 °F 19.4 °F 93% 29.37 in 10.0 mi NNE 4.6 mph - N/A   Clear
10:36 PM 23.0 °F - 21.2 °F 93% 29.38 in 10.0 mi Calm Calm - N/A   Clear
10:56 PM 19.4 °F - 17.6 °F 93% 29.38 in 10.0 mi North - - N/A   Clear
11:16 PM 21.2 °F 16.4 °F 19.4 °F 93% 29.39 in 10.0 mi NNE 3.5 mph - N/A   Clear
11:36 PM 19.4 °F - 14.0 °F 80% 29.40 in 10.0 mi Calm Calm - N/A   Clear
11:56 PM 17.6 °F - 15.8 °F 93% 29.41 in 10.0 mi Calm Calm - N/A   Clear